Time;durP1;ratioP1;P1;durP2;ratioP2;P2;SDS_P1;SDS_P2;PMS_P1;PMS_P2;Temp;Humidity;BMP_temperature;BMP_pressure;BME280_temperature;BME280_humidity;BME280_pressure;Samples;Min_cycle;Max_cycle;Signal;HPM_P1;HPM_P2
2022/05/08 00:02:19;;;;;;;10.60;6.97;;;;;;;6.88;66.43;101771.80;1860815;77;20918;-77
2022/05/08 00:04:51;;;;;;;11.88;7.17;;;;;;;6.82;66.46;101776.70;1860575;76;21386;-78
2022/05/08 00:07:13;;;;;;;11.25;7.42;;;;;;;6.75;66.43;101776.02;1859102;77;20895;-79
2022/05/08 00:09:40;;;;;;;10.60;8.25;;;;;;;6.71;66.59;101769.61;1860748;77;21109;-78
2022/05/08 00:12:07;;;;;;;12.07;7.05;;;;;;;6.70;66.79;101777.04;1860526;77;20899;-78
2022/05/08 00:14:34;;;;;;;13.50;7.15;;;;;;;6.70;67.03;101777.04;1860489;77;21469;-78
2022/05/08 00:17:00;;;;;;;13.72;7.47;;;;;;;6.70;66.83;101777.89;1860475;77;21445;-78
2022/05/08 00:19:27;;;;;;;15.63;8.03;;;;;;;6.66;66.82;101776.25;1860483;76;20836;-78
2022/05/08 00:21:55;;;;;;;12.20;6.83;;;;;;;6.66;66.86;101778.01;1860614;76;21072;-78
2022/05/08 00:24:21;;;;;;;14.95;8.20;;;;;;;6.62;66.72;101776.76;1860561;76;21044;-78
2022/05/08 00:26:48;;;;;;;15.50;7.85;;;;;;;6.57;66.80;101777.33;1860765;76;20860;-79
2022/05/08 00:29:15;;;;;;;10.50;6.53;;;;;;;6.57;67.07;101781.69;1860882;77;20923;-76
2022/05/08 00:31:42;;;;;;;10.82;7.28;;;;;;;6.61;67.28;101776.37;1860707;77;20892;-75
2022/05/08 00:34:09;;;;;;;13.40;8.20;;;;;;;6.62;67.10;101773.30;1860687;76;21232;-78
2022/05/08 00:37:17;;;;;;;13.88;8.23;;;;;;;6.68;67.34;101774.91;1799022;79;22573;-77
2022/05/08 00:39:44;;;;;;;13.13;9.25;;;;;;;6.67;67.37;101766.25;1758429;81;20971;-78
2022/05/08 00:42:12;;;;;;;13.85;8.18;;;;;;;6.73;67.38;101769.13;1724874;82;21192;-78
2022/05/08 00:44:39;;;;;;;13.05;8.00;;;;;;;6.79;67.38;101764.61;1725098;83;20891;-77
2022/05/08 00:47:05;;;;;;;20.72;8.50;;;;;;;6.79;66.91;101766.38;1724786;83;20995;-77
2022/05/08 00:49:32;;;;;;;15.53;8.93;;;;;;;6.74;66.66;101763.88;1724768;83;20971;-79
2022/05/08 00:51:59;;;;;;;14.85;7.00;;;;;;;6.68;66.59;101765.34;1725123;83;20887;-78
2022/05/08 00:54:26;;;;;;;15.40;8.10;;;;;;;6.62;66.49;101770.70;1724821;83;21293;-78
2022/05/08 00:56:53;;;;;;;12.78;7.62;;;;;;;6.56;66.77;101764.36;1724799;83;20935;-78
2022/05/08 00:59:19;;;;;;;9.70;6.83;;;;;;;6.52;67.23;101764.02;1725054;82;21484;-78
2022/05/08 01:01:46;;;;;;;8.48;7.03;;;;;;;6.52;67.51;101760.11;1724859;81;20954;-78
2022/05/08 01:04:13;;;;;;;13.65;6.92;;;;;;;6.54;67.71;101763.08;1724900;83;20982;-78
2022/05/08 01:06:40;;;;;;;10.40;5.85;;;;;;;6.55;67.58;101760.02;1724697;83;21267;-78
2022/05/08 01:09:07;;;;;;;9.63;5.90;;;;;;;6.54;67.64;101759.17;1696394;83;21021;-77
2022/05/08 01:11:35;;;;;;;11.53;6.67;;;;;;;6.51;67.61;101757.92;1724862;83;21488;-78
2022/05/08 01:14:03;;;;;;;13.30;6.90;;;;;;;6.42;67.70;101757.73;1720186;82;20979;-78
2022/05/08 01:16:31;;;;;;;7.95;5.90;;;;;;;6.34;67.98;101753.60;1724834;83;20890;-79
2022/05/08 01:18:58;;;;;;;15.90;6.33;;;;;;;6.31;68.32;101751.05;1724903;83;21125;-78
2022/05/08 01:21:43;;;;;;;10.38;6.80;;;;;;;6.31;68.52;101746.69;1725019;81;20880;-78
2022/05/08 01:24:11;;;;;;;15.23;6.50;;;;;;;6.32;68.48;101752.78;1724826;83;20958;-78
2022/05/08 01:26:38;;;;;;;12.98;7.35;;;;;;;6.32;68.48;101748.42;1724689;83;20912;-78
2022/05/08 01:29:04;;;;;;;11.20;6.90;;;;;;;6.31;68.40;101745.39;1725118;83;21449;-78
2022/05/08 01:31:32;;;;;;;14.65;6.85;;;;;;;6.33;68.32;101745.36;1724807;83;21908;-78
2022/05/08 01:33:58;;;;;;;16.07;7.17;;;;;;;6.33;68.25;101744.91;1724619;83;20871;-77
2022/05/08 01:36:25;;;;;;;14.43;7.65;;;;;;;6.36;68.19;101744.85;1716952;82;20900;-78
2022/05/08 01:38:52;;;;;;;16.80;7.78;;;;;;;6.38;68.00;101743.06;1709434;83;20940;-78
2022/05/08 01:41:18;;;;;;;13.38;7.15;;;;;;;6.39;67.73;101737.41;1709333;82;21393;-78
2022/05/08 01:43:44;;;;;;;12.05;6.90;;;;;;;6.38;67.76;101738.28;1709701;84;21930;-78
2022/05/08 01:46:12;;;;;;;19.17;8.90;;;;;;;6.37;67.52;101744.39;1709300;84;20959;-77
2022/05/08 01:48:39;;;;;;;18.42;8.35;;;;;;;6.36;67.45;101744.00;1708771;84;20936;-79
2022/05/08 01:51:06;;;;;;;21.33;10.80;;;;;;;6.31;67.13;101740.17;1709124;83;20905;-77
2022/05/08 01:53:34;;;;;;;25.10;10.25;;;;;;;6.26;67.07;101736.84;1744717;82;20968;-78
2022/05/08 01:56:05;;;;;;;24.18;11.25;;;;;;;6.20;66.94;101744.78;1744575;81;21170;-77
2022/05/08 01:58:31;;;;;;;20.52;11.63;;;;;;;6.14;66.95;101747.11;1744920;82;20934;-79
2022/05/08 02:00:59;;;;;;;20.95;11.25;;;;;;;6.12;66.97;101748.04;1744676;81;20920;-78
2022/05/08 02:03:25;;;;;;;24.15;11.73;;;;;;;6.12;66.96;101750.19;1744503;82;20944;-77
2022/05/08 02:05:52;;;;;;;23.10;10.82;;;;;;;6.12;66.84;101743.69;1744887;82;21348;-78
2022/05/08 02:08:18;;;;;;;22.85;10.65;;;;;;;6.12;66.93;101747.59;1744711;82;21238;-79
2022/05/08 02:10:47;;;;;;;19.23;10.10;;;;;;;6.15;66.91;101757.07;1744624;81;20979;-77
2022/05/08 02:13:13;;;;;;;23.87;10.50;;;;;;;6.13;66.68;101745.83;1744989;81;20936;-79
2022/05/08 02:15:42;;;;;;;18.00;10.10;;;;;;;6.10;66.71;101751.13;1744508;81;20901;-79
2022/05/08 02:18:11;;;;;;;18.48;9.33;;;;;;;6.08;66.67;101751.60;1744594;81;20866;-80
2022/05/08 02:20:39;;;;;;;19.42;10.00;;;;;;;6.07;66.54;101758.98;1744755;81;21916;-78
2022/05/08 02:23:06;;;;;;;20.15;9.53;;;;;;;6.08;66.62;101758.96;1744556;82;20880;-78
2022/05/08 02:25:36;;;;;;;23.35;11.78;;;;;;;6.07;66.55;101757.27;1708921;82;21058;-77
2022/05/08 02:28:04;;;;;;;22.73;10.03;;;;;;;6.05;66.54;101764.25;1744818;81;21355;-79
2022/05/08 02:30:30;;;;;;;18.05;10.95;;;;;;;6.00;66.53;101764.78;1744623;82;21000;-78
2022/05/08 02:33:00;;;;;;;22.37;11.38;;;;;;;5.95;66.50;101760.13;1744703;81;20980;-78
2022/05/08 02:35:26;;;;;;;26.42;11.08;;;;;;;5.91;66.39;101768.86;1744838;82;20940;-79
2022/05/08 02:37:54;;;;;;;26.57;12.20;;;;;;;5.88;66.69;101769.79;1757188;80;20940;-78
2022/05/08 02:40:26;;;;;;;28.25;13.80;;;;;;;5.89;66.77;101774.55;1757927;81;21049;-78
2022/05/08 02:42:50;;;;;;;28.35;12.88;;;;;;;5.92;66.81;101770.59;1757387;80;21465;-78
2022/05/08 02:45:16;;;;;;;26.93;12.47;;;;;;;5.94;66.89;101776.63;1757855;81;21238;-77
2022/05/08 02:47:45;;;;;;;27.15;11.68;;;;;;;5.95;67.17;101773.15;1757843;81;20861;-78
2022/05/08 02:50:12;;;;;;;21.97;10.90;;;;;;;6.00;67.36;101766.96;1758064;80;21483;-79
2022/05/08 02:52:39;;;;;;;17.85;9.63;;;;;;;6.04;67.09;101782.05;1758212;80;20884;-79
2022/05/08 03:00:39;;;;;;;16.00;7.53;;;;;;;6.07;67.32;101786.33;1757884;81;20912;-78
2022/05/08 03:03:06;;;;;;;13.05;7.17;;;;;;;6.09;67.39;101788.45;1757898;81;20857;-78
2022/05/08 03:05:33;;;;;;;20.12;9.58;;;;;;;6.08;67.55;101788.91;1757960;81;20904;-78
2022/05/08 03:08:00;;;;;;;27.30;10.75;;;;;;;6.13;67.62;101792.25;1757937;81;21350;-78
2022/05/08 03:10:28;;;;;;;19.90;9.40;;;;;;;6.22;67.33;101796.41;1758008;81;21228;-78
2022/05/08 03:12:55;;;;;;;27.73;10.08;;;;;;;6.31;67.13;101800.09;1757925;80;20924;-77
2022/05/08 03:15:22;;;;;;;26.52;10.15;;;;;;;6.35;66.55;101805.64;1757845;81;20940;-78
2022/05/08 03:17:49;;;;;;;18.87;10.13;;;;;;;6.34;66.15;101804.41;1757899;80;20897;-78
2022/05/08 03:20:15;;;;;;;30.95;13.83;;;;;;;6.35;66.13;101808.25;1757884;81;21393;-79
2022/05/08 03:22:42;;;;;;;28.67;13.32;;;;;;;6.41;66.03;101804.66;1757972;81;21919;-79
2022/05/08 03:25:09;;;;;;;30.05;11.73;;;;;;;6.49;66.00;101804.47;1757802;80;20865;-78
2022/05/08 03:27:35;;;;;;;27.77;11.90;;;;;;;6.57;65.58;101803.84;1758191;81;20983;-78
2022/05/08 03:30:03;;;;;;;29.32;12.30;;;;;;;6.66;65.29;101804.07;1758141;81;20936;-78
2022/05/08 03:32:31;;;;;;;24.60;11.90;;;;;;;6.74;65.29;101803.45;1757954;80;20947;-79
2022/05/08 03:34:58;;;;;;;20.60;10.68;;;;;;;6.81;65.49;101802.39;1758035;81;21259;-78
2022/05/08 03:37:25;;;;;;;20.00;9.53;;;;;;;6.90;65.71;101800.84;1749811;81;20873;-78
2022/05/08 03:39:51;;;;;;;22.90;11.10;;;;;;;7.01;65.50;101805.79;1744618;82;20897;-78
2022/05/08 03:42:20;;;;;;;25.62;11.63;;;;;;;7.12;65.26;101806.36;1744608;81;21016;-77
2022/05/08 03:44:46;;;;;;;27.95;13.90;;;;;;;7.22;64.75;101805.66;1744966;82;21350;-78
2022/05/08 03:47:13;;;;;;;31.70;12.05;;;;;;;7.33;64.41;101807.98;1744567;82;21131;-78
2022/05/08 03:49:40;;;;;;;28.12;14.13;;;;;;;7.42;64.09;101804.66;1744623;81;20917;-78
2022/05/08 03:52:07;;;;;;;28.52;13.08;;;;;;;7.54;63.60;101811.31;1744985;81;20893;-78
2022/05/08 03:54:34;;;;;;;23.55;10.80;;;;;;;7.65;62.69;101821.45;1745678;82;20889;-75
2022/05/08 03:57:00;;;;;;;19.67;10.13;;;;;;;7.70;62.11;101818.70;1744685;82;21035;-77
2022/05/08 03:59:26;;;;;;;20.70;9.53;;;;;;;7.74;62.03;101810.74;1744857;81;21893;-78
2022/05/08 04:01:55;;;;;;;15.63;8.65;;;;;;;7.84;62.53;101818.69;1744892;81;20984;-77
2022/05/08 04:04:21;;;;;;;17.92;9.88;;;;;;;7.98;62.08;101815.70;1744677;82;20932;-77
2022/05/08 04:06:48;;;;;;;15.38;9.93;;;;;;;8.18;62.22;101813.78;1744504;82;20862;-79
2022/05/08 04:09:16;;;;;;;22.13;10.38;;;;;;;8.48;62.49;101812.44;1744677;81;20976;-78
2022/05/08 04:11:42;;;;;;;27.87;10.00;;;;;;;8.80;62.30;101812.68;1744571;81;21282;-78
2022/05/08 04:14:08;;;;;;;35.10;11.12;;;;;;;9.25;61.58;101813.34;1744889;81;20889;-79
2022/05/08 04:16:35;;;;;;;28.47;11.05;;;;;;;9.72;60.89;101812.07;1744650;80;20885;-78
2022/05/08 04:19:02;;;;;;;25.50;10.95;;;;;;;10.30;59.77;101818.64;1744636;82;20905;-79
2022/05/08 04:21:28;;;;;;;22.80;10.10;;;;;;;10.96;58.63;101814.17;1744681;82;21395;-79
2022/05/08 04:26:40;;;;;;;16.90;9.80;;;;;;;12.43;56.40;101813.69;1744652;82;20916;-79
2022/05/08 04:29:07;;;;;;;19.52;10.63;;;;;;;13.20;54.72;101817.25;1744565;81;20881;-79
2022/05/08 04:31:34;;;;;;;25.43;8.60;;;;;;;13.84;53.33;101817.44;1744668;82;20937;-78
2022/05/08 04:34:01;;;;;;;14.95;7.35;;;;;;;14.44;51.68;101817.59;1744988;82;21003;-79
2022/05/08 04:36:28;;;;;;;21.93;9.45;;;;;;;14.98;49.87;101815.81;1745907;81;21127;-79
2022/05/08 04:38:54;;;;;;;27.22;10.98;;;;;;;15.48;49.13;101815.03;1758178;81;20979;-79
2022/05/08 04:41:20;;;;;;;25.45;9.88;;;;;;;15.94;47.51;101813.49;1758242;81;20967;-78
2022/05/08 04:43:48;;;;;;;49.63;10.55;;;;;;;16.23;46.59;101815.63;1758165;81;20904;-78
2022/05/08 04:46:15;;;;;;;20.88;7.53;;;;;;;16.47;44.94;101817.59;1757923;81;20905;-78
2022/05/08 04:48:44;;;;;;;18.85;6.50;;;;;;;16.78;43.66;101815.95;1758170;81;21907;-81
2022/05/08 04:51:11;;;;;;;12.70;5.08;;;;;;;17.15;42.53;101821.42;1757742;81;20923;-78
2022/05/08 04:53:37;;;;;;;14.98;6.17;;;;;;;17.60;40.56;101823.64;1757796;80;20923;-77
2022/05/08 04:56:04;;;;;;;9.35;5.42;;;;;;;18.06;38.72;101818.22;1757823;80;20928;-79
2022/05/08 04:58:31;;;;;;;10.23;5.58;;;;;;;18.53;36.88;101823.17;1757763;80;20980;-79
2022/05/08 05:00:58;;;;;;;15.80;5.17;;;;;;;19.08;36.11;101820.84;1757824;81;21341;-79
2022/05/08 05:03:25;;;;;;;15.00;5.00;;;;;;;19.62;36.01;101817.48;1758042;81;20983;-78
2022/05/08 05:05:52;;;;;;;11.12;4.40;;;;;;;20.15;35.08;101822.17;1757836;80;20934;-78
2022/05/08 05:08:20;;;;;;;5.55;4.42;;;;;;;20.68;34.16;101821.77;1757845;80;20947;-80
2022/05/08 05:10:48;;;;;;;9.88;4.58;;;;;;;21.15;33.57;101816.53;1757849;80;21318;-78
2022/05/08 05:13:16;;;;;;;8.58;4.37;;;;;;;21.57;32.54;101817.33;1757905;81;22092;-80
2022/05/08 05:15:42;;;;;;;8.25;4.62;;;;;;;22.02;31.75;101813.37;1758018;80;20936;-79
2022/05/08 05:18:09;;;;;;;10.90;4.10;;;;;;;22.43;30.44;101817.66;1758314;80;20924;-78
2022/05/08 05:20:35;;;;;;;9.15;4.90;;;;;;;22.75;30.20;101809.35;1757984;81;20963;-77
2022/05/08 05:23:02;;;;;;;15.75;7.37;;;;;;;23.12;29.57;101814.44;1757973;81;20964;-79
2022/05/08 05:25:29;;;;;;;23.77;11.48;;;;;;;23.48;28.24;101814.62;1758385;80;21226;-78
2022/05/08 05:27:56;;;;;;;22.90;12.03;;;;;;;23.73;27.47;101818.45;1757868;80;20975;-79
2022/05/08 05:30:23;;;;;;;28.12;14.35;;;;;;;23.98;26.90;101820.44;1758028;80;20991;-77
2022/05/08 05:32:49;;;;;;;29.87;15.18;;;;;;;24.18;26.74;101813.61;1758166;80;20908;-78
2022/05/08 05:35:18;;;;;;;28.83;14.73;;;;;;;24.39;25.80;101822.71;1758069;81;21390;-79
2022/05/08 05:37:46;;;;;;;23.83;13.62;;;;;;;24.59;25.40;101817.55;1751567;81;21740;-79
2022/05/08 05:40:12;;;;;;;22.55;11.83;;;;;;;24.84;24.99;101822.28;1744947;80;21438;-79
2022/05/08 05:42:39;;;;;;;21.62;12.68;;;;;;;25.05;24.94;101816.54;1744842;81;20940;-79
2022/05/08 05:45:07;;;;;;;23.52;12.65;;;;;;;25.25;25.13;101815.34;1744652;82;21409;-77
2022/05/08 05:50:21;;;;;;;23.87;12.65;;;;;;;25.83;24.95;101815.09;1745721;81;21888;-80
2022/05/08 05:52:49;;;;;;;24.35;12.65;;;;;;;26.04;24.39;101818.22;1746519;81;20913;-78
2022/05/08 05:55:16;;;;;;;22.30;12.68;;;;;;;26.19;24.19;101812.17;1745219;82;20885;-79
2022/05/08 05:57:42;;;;;;;20.15;12.82;;;;;;;26.41;24.17;101810.69;1744618;82;20940;-79
2022/05/08 06:00:18;;;;;;;22.58;12.55;;;;;;;26.60;24.21;101812.26;1744706;82;21383;-80
2022/05/08 06:02:45;;;;;;;19.82;11.43;;;;;;;26.75;24.02;101809.73;1744644;80;21214;-81
2022/05/08 06:05:14;;;;;;;24.37;13.83;;;;;;;26.93;23.74;101812.23;1744844;82;20928;-77
2022/05/08 06:07:44;;;;;;;18.70;10.60;;;;;;;26.95;23.75;101812.91;1744805;82;21039;-79
2022/05/08 06:10:12;;;;;;;36.80;28.17;;;;;;;27.01;23.37;101811.72;1744903;81;21033;-79
2022/05/08 06:12:42;;;;;;;21.77;9.15;;;;;;;27.00;23.28;101810.02;1745131;81;21505;-78
2022/05/08 06:15:10;;;;;;;21.40;10.53;;;;;;;26.98;23.46;101813.39;1744832;82;21328;-80
2022/05/08 06:17:37;;;;;;;15.95;9.28;;;;;;;27.18;23.20;101808.98;1745220;82;20913;-79
2022/05/08 06:20:05;;;;;;;18.30;9.40;;;;;;;27.37;23.74;101814.49;1745020;81;20992;-79
2022/05/08 06:22:34;;;;;;;20.15;8.68;;;;;;;27.56;23.16;101810.05;1744749;82;20873;-78
2022/05/08 06:25:00;;;;;;;17.15;8.98;;;;;;;27.77;23.68;101812.16;1745408;81;21006;-78
2022/05/08 06:27:26;;;;;;;16.85;8.75;;;;;;;27.97;22.77;101804.48;1745020;81;21218;-78
2022/05/08 06:29:53;;;;;;;14.05;7.72;;;;;;;28.19;22.37;101808.71;1744716;81;20940;-77
2022/05/08 06:32:21;;;;;;;22.48;9.05;;;;;;;28.44;21.81;101806.17;1745140;82;21580;-77
2022/05/08 06:34:49;;;;;;;17.70;7.72;;;;;;;28.70;21.49;101811.22;1744856;81;20933;-79
2022/05/08 06:37:16;;;;;;;16.45;9.05;;;;;;;28.93;20.99;101811.67;1746407;81;21406;-78
2022/05/08 06:39:43;;;;;;;15.45;8.75;;;;;;;29.11;21.00;101808.12;1757893;81;21288;-80
2022/05/08 06:42:10;;;;;;;14.53;7.72;;;;;;;29.23;20.94;101798.20;1757903;81;20873;-79
2022/05/08 06:44:39;;;;;;;13.28;7.92;;;;;;;29.41;20.17;101799.99;1721246;82;20892;-78
2022/05/08 06:47:06;;;;;;;16.67;7.53;;;;;;;29.49;19.71;101797.72;1721766;83;21033;-79
2022/05/08 06:49:34;;;;;;;14.53;7.67;;;;;;;29.53;20.08;101794.97;1721888;83;20967;-79
2022/05/08 06:52:01;;;;;;;13.68;7.97;;;;;;;29.59;19.40;101795.54;1721771;83;21726;-78
2022/05/08 06:54:28;;;;;;;14.78;6.85;;;;;;;29.57;20.01;101795.41;1721782;82;20840;-78
2022/05/08 06:56:56;;;;;;;12.63;6.92;;;;;;;29.68;19.45;101800.33;1722197;82;21479;-80
2022/05/08 07:02:09;;;;;;;9.85;6.25;;;;;;;29.99;18.40;101791.14;1721979;82;21426;-78
2022/05/08 07:04:35;;;;;;;14.53;6.70;;;;;;;30.07;19.28;101791.86;1721963;83;21138;-78
2022/05/08 07:07:02;;;;;;;11.50;6.72;;;;;;;30.03;18.03;101791.91;1721762;82;21504;-79
2022/05/08 07:09:29;;;;;;;16.23;7.33;;;;;;;29.79;18.69;101786.86;1722643;82;20852;-78
2022/05/08 07:11:55;;;;;;;13.30;6.22;;;;;;;29.66;18.03;101788.86;1722098;82;20919;-77
2022/05/08 07:14:22;;;;;;;15.43;7.10;;;;;;;29.41;18.48;101787.83;1722414;83;20998;-78
2022/05/08 07:16:49;;;;;;;15.40;6.35;;;;;;;29.36;19.25;101782.69;1722555;82;21248;-74
2022/05/08 07:19:15;;;;;;;11.20;5.83;;;;;;;29.45;19.21;101786.44;1723957;83;20880;-75
2022/05/08 07:21:42;;;;;;;10.68;5.37;;;;;;;29.55;18.61;101778.05;1723475;83;21095;-76
2022/05/08 07:24:09;;;;;;;19.70;5.42;;;;;;;29.63;18.27;101783.33;1721930;83;20948;-78
2022/05/08 07:26:36;;;;;;;15.88;5.78;;;;;;;29.72;17.37;101775.97;1721941;83;20942;-78
2022/05/08 07:29:04;;;;;;;9.10;5.67;;;;;;;29.73;17.27;101777.14;1721846;83;21229;-79
2022/05/08 07:31:32;;;;;;;8.83;4.90;;;;;;;29.72;17.69;101774.10;1722096;82;20943;-78
2022/05/08 07:36:46;;;;;;;7.80;3.87;;;;;;;29.59;16.80;101773.91;1695330;83;21041;-77
2022/05/08 07:39:12;;;;;;;6.75;4.20;;;;;;;29.77;15.96;101774.91;1717523;82;21507;-78
2022/05/08 07:41:40;;;;;;;7.83;3.65;;;;;;;29.86;15.95;101775.11;1716727;83;21019;-78
2022/05/08 07:44:07;;;;;;;5.40;3.60;;;;;;;29.78;15.18;101771.68;1717059;83;20991;-79
2022/05/08 07:46:33;;;;;;;25.27;18.30;;;;;;;29.74;15.30;101758.52;1716644;83;20935;-79
2022/05/08 07:49:00;;;;;;;17.00;11.53;;;;;;;29.68;15.58;101768.77;1752589;80;21434;-77
2022/05/08 07:51:28;;;;;;;10.90;3.87;;;;;;;29.64;15.40;101765.27;1752821;80;20987;-79
2022/05/08 07:53:54;;;;;;;3.92;2.98;;;;;;;29.59;15.18;101764.45;1752761;80;21218;-78
2022/05/08 07:56:22;;;;;;;4.45;2.90;;;;;;;29.48;15.13;101766.30;1752683;80;20912;-78
2022/05/08 07:58:48;;;;;;;4.12;2.12;;;;;;;29.46;14.16;101771.05;1716849;83;20951;-79
2022/05/08 08:01:15;;;;;;;4.65;2.05;;;;;;;29.63;14.16;101758.99;1716905;83;20943;-78
2022/05/08 08:03:41;;;;;;;7.20;2.02;;;;;;;29.81;14.10;101760.47;1716513;83;20888;-78
2022/05/08 08:06:08;;;;;;;3.65;2.58;;;;;;;29.90;14.41;101756.13;1717067;82;21239;-79
2022/05/08 08:08:35;;;;;;;5.92;3.00;;;;;;;29.88;14.01;101758.67;1716508;83;21447;-80
2022/05/08 08:11:04;;;;;;;6.28;2.77;;;;;;;29.83;13.68;101755.71;1716719;83;21449;-79
2022/05/08 08:13:33;;;;;;;9.80;2.72;;;;;;;29.58;13.72;101747.92;1716708;83;20955;-80
2022/05/08 08:16:02;;;;;;;4.22;2.75;;;;;;;29.43;13.93;101745.77;1716605;82;21454;-80
2022/05/08 08:18:29;;;;;;;5.03;2.52;;;;;;;29.29;14.51;101738.84;1716587;82;21251;-80
2022/05/08 08:20:55;;;;;;;3.45;2.52;;;;;;;29.37;14.28;101747.86;1716833;83;21330;-79
2022/05/08 08:23:23;;;;;;;7.67;1.85;;;;;;;29.49;13.78;101744.48;1716548;83;20935;-80
2022/05/08 08:25:49;;;;;;;8.10;2.85;;;;;;;29.57;13.33;101742.20;1716501;83;20911;-81
2022/05/08 08:28:16;;;;;;;5.83;3.33;;;;;;;29.65;13.60;101742.59;1717053;83;21287;-80
2022/05/08 08:30:42;;;;;;;7.22;3.77;;;;;;;29.77;13.92;101742.95;1716396;83;21923;-81
2022/05/08 08:33:09;;;;;;;8.93;3.65;;;;;;;29.82;13.79;101743.23;1716320;82;21037;-80
2022/05/08 08:35:39;;;;;;;4.62;3.92;;;;;;;29.82;13.68;101743.23;1716506;83;20903;-81
2022/05/08 08:38:06;;;;;;;7.25;4.72;;;;;;;30.00;13.57;101744.14;1716700;82;21398;-80
2022/05/08 08:40:33;;;;;;;16.37;8.13;;;;;;;30.11;13.84;101739.04;1717292;83;20987;-81
2022/05/08 08:43:00;;;;;;;12.20;6.25;;;;;;;30.13;13.76;101736.98;1734902;82;21123;-81
2022/05/08 08:48:27;;;;;;;10.13;5.42;;;;;;;30.13;13.98;101738.33;1753183;82;20952;-80
2022/05/08 08:50:59;;;;;;;9.30;6.00;;;;;;;30.16;14.06;101731.69;1752392;80;20971;-80
2022/05/08 08:53:28;;;;;;;6.80;5.10;;;;;;;30.25;14.13;101733.74;1717489;83;20853;-81
2022/05/08 08:55:56;;;;;;;10.13;5.78;;;;;;;30.41;14.37;101725.88;1717335;83;21224;-79
2022/05/08 08:58:22;;;;;;;10.68;5.75;;;;;;;30.57;14.71;101730.50;1717361;83;20975;-79
2022/05/08 09:00:50;;;;;;;9.80;5.37;;;;;;;30.72;14.68;101723.59;1717253;82;20931;-79
2022/05/08 09:03:28;;;;;;;10.10;6.58;;;;;;;30.91;14.34;101722.09;1717022;83;20919;-80
2022/05/08 09:05:58;;;;;;;8.20;6.10;;;;;;;31.08;14.49;101714.97;1712238;83;20908;-80
2022/05/08 09:08:31;;;;;;;20.17;7.53;;;;;;;31.05;13.67;101714.03;1716678;82;21252;-80
2022/05/08 09:10:59;;;;;;;11.90;7.75;;;;;;;30.87;13.87;101710.50;1752800;80;21287;-80
2022/05/08 09:13:28;;;;;;;12.10;8.35;;;;;;;30.56;13.56;101716.62;1753052;82;20821;-80
2022/05/08 09:16:05;;;;;;;15.28;7.60;;;;;;;30.26;13.95;101707.84;1752693;81;20944;-80
2022/05/08 09:18:48;;;;;;;10.78;8.13;;;;;;;30.11;14.89;101711.98;1752103;81;20932;-81
2022/05/08 09:24:11;;;;;;;11.75;8.13;;;;;;;30.38;14.34;101702.75;1701147;84;20098;-82
2022/05/08 09:26:40;;;;;;;16.85;13.70;;;;;;;30.48;14.92;101703.26;1700876;84;20960;-80
2022/05/08 09:29:10;;;;;;;14.98;11.97;;;;;;;30.56;13.99;101698.19;1700981;84;20877;-81
2022/05/08 09:31:41;;;;;;;15.25;12.63;;;;;;;30.49;14.17;101689.20;1700967;84;20921;-80
2022/05/08 09:34:07;;;;;;;11.28;8.45;;;;;;;30.38;14.55;101689.22;1701217;84;21223;-79
2022/05/08 09:36:35;;;;;;;12.07;8.00;;;;;;;30.43;15.00;101695.39;1701221;84;20993;-80
2022/05/08 09:39:02;;;;;;;14.68;10.43;;;;;;;30.41;14.31;101696.11;1698136;84;21517;-81
2022/05/08 09:41:38;;;;;;;13.18;9.58;;;;;;;30.39;14.44;101696.81;1750857;81;21518;-80
2022/05/08 09:44:17;;;;;;;13.30;10.35;;;;;;;30.35;13.97;101699.09;1686708;83;20936;-83
2022/05/08 09:46:45;;;;;;;17.15;9.83;;;;;;;30.26;14.18;101698.37;1750522;82;21238;-81
2022/05/08 09:49:13;;;;;;;16.85;12.75;;;;;;;30.30;14.69;101701.53;1750534;82;20991;-81
2022/05/08 09:51:41;;;;;;;27.40;13.72;;;;;;;30.20;13.84;101688.85;1750810;82;20939;-79
2022/05/08 09:54:11;;;;;;;16.77;10.43;;;;;;;30.10;13.92;101688.67;1750336;82;20905;-80
2022/05/08 09:56:38;;;;;;;17.65;11.53;;;;;;;29.81;13.94;101690.98;1750334;82;20889;-81
2022/05/08 09:59:07;;;;;;;12.88;10.25;;;;;;;29.82;14.58;101688.63;1750799;80;21181;-80
2022/05/08 10:01:34;;;;;;;18.60;11.80;;;;;;;29.84;14.70;101690.63;1750325;82;20968;-79
2022/05/08 10:04:01;;;;;;;16.93;11.85;;;;;;;29.93;13.90;101686.75;1750350;80;20963;-81
2022/05/08 10:06:28;;;;;;;17.40;11.25;;;;;;;29.95;13.91;101683.86;1750319;81;20857;-80
2022/05/08 10:13:53;;;;;;;17.25;11.03;;;;;;;30.08;14.67;101684.47;1751382;82;20925;-78
2022/05/08 10:14:11;;;;;;;13.90;9.43;;;;;;;30.23;14.21;101683.03;1750604;80;21025;-80
2022/05/08 10:16:53;;;;;;;12.73;9.48;;;;;;;30.14;13.69;101679.11;1664055;83;20935;-82
2022/05/08 10:19:30;;;;;;;12.13;9.33;;;;;;;29.93;14.32;101674.58;1712528;83;20925;-80
2022/05/08 10:22:03;;;;;;;16.27;10.80;;;;;;;29.86;14.62;101668.28;1712151;83;20845;-80
2022/05/08 10:24:51;;;;;;;13.95;8.08;;;;;;;29.93;14.56;101668.33;1750349;80;21347;-80
2022/05/08 10:27:30;;;;;;;14.65;8.70;;;;;;;29.96;14.32;101668.77;1750216;80;21327;-81
2022/05/08 10:30:03;;;;;;;11.05;7.62;;;;;;;29.92;14.12;101658.53;1750405;82;20971;-81
2022/05/08 10:32:34;;;;;;;;;;;;;;;29.82;14.65;101653.46;1714765;82;21003;-82
2022/05/08 10:35:13;;;;;;;12.45;7.55;;;;;;;29.82;14.31;101655.34;1694391;84;20090;-80
2022/05/08 10:37:47;;;;;;;12.30;10.15;;;;;;;29.84;14.57;101650.05;1750750;81;21004;-82
2022/05/08 10:40:31;;;;;;;15.50;11.18;;;;;;;29.96;14.81;101652.53;1756782;81;20884;-80
2022/05/08 10:43:00;;;;;;;16.07;9.03;;;;;;;30.06;14.94;101646.80;1759323;81;20861;-83
2022/05/08 10:45:40;;;;;;;17.27;10.25;;;;;;;30.24;14.99;101648.16;1759888;81;20865;-80
2022/05/08 10:48:10;;;;;;;18.07;9.40;;;;;;;30.23;14.47;101645.15;1759577;81;20920;-80
2022/05/08 10:50:46;;;;;;;24.02;11.38;;;;;;;30.13;14.53;101641.45;1760915;81;20908;-76
2022/05/08 10:53:32;;;;;;;12.65;8.18;;;;;;;30.15;14.82;101641.56;1760810;80;20943;-81
2022/05/08 10:56:09;;;;;;;18.77;9.90;;;;;;;30.09;14.33;101641.52;1758751;81;20900;-80
2022/05/08 10:58:41;;;;;;;15.90;8.18;;;;;;;29.95;14.49;101636.52;1758159;81;20864;-80
2022/05/08 11:01:12;;;;;;;17.05;7.60;;;;;;;30.00;14.41;101627.81;1758265;80;20972;-82
2022/05/08 11:03:39;;;;;;;10.28;7.40;;;;;;;30.06;14.69;101623.81;1758182;81;21241;-83
2022/05/08 11:06:06;;;;;;;10.13;7.00;;;;;;;30.18;14.36;101625.45;1758160;80;20881;-81
2022/05/08 11:08:35;;;;;;;10.03;7.30;;;;;;;30.26;14.33;101621.73;1757983;80;20924;-80
2022/05/08 11:11:08;;;;;;;13.13;7.53;;;;;;;30.27;13.60;101616.17;1758064;80;20936;-83
2022/05/08 11:13:43;;;;;;;8.75;6.72;;;;;;;30.19;14.52;101616.80;1758708;81;25043;-80
2022/05/08 11:16:12;;;;;;;9.43;6.70;;;;;;;30.08;14.08;101616.34;1758313;81;21946;-81
2022/05/08 11:18:39;;;;;;;10.23;6.97;;;;;;;29.86;13.60;101607.91;1758282;80;20909;-81
2022/05/08 11:21:08;;;;;;;10.78;7.33;;;;;;;29.75;14.13;101606.08;1758424;81;20924;-81
2022/05/08 11:23:47;;;;;;;11.18;7.85;;;;;;;29.82;14.87;101598.02;1758214;81;20967;-80
2022/05/08 11:26:14;;;;;;;9.03;7.70;;;;;;;29.96;14.62;101600.31;1758351;81;21493;-80
2022/05/08 11:28:55;;;;;;;13.38;7.33;;;;;;;30.05;14.80;101596.42;1759512;81;21251;-81
2022/05/08 11:31:26;;;;;;;10.85;7.85;;;;;;;30.00;14.10;101594.83;1758893;81;20951;-81
2022/05/08 11:36:41;;;;;;;10.30;7.40;;;;;;;29.24;14.75;101585.09;1759286;81;20872;-80
2022/05/08 11:39:17;;;;;;;13.83;7.45;;;;;;;28.97;14.59;101579.85;1759187;81;20940;-79
2022/05/08 11:41:48;;;;;;;10.38;7.95;;;;;;;28.66;14.75;101579.09;1758897;80;20960;-81
2022/05/08 11:44:21;;;;;;;16.82;8.35;;;;;;;28.39;15.16;101573.83;1742272;81;21370;-81
2022/05/08 11:46:50;;;;;;;13.43;7.60;;;;;;;28.26;15.47;101575.81;1759243;81;20904;-80
2022/05/08 11:49:27;;;;;;;12.20;8.20;;;;;;;28.06;15.41;101575.52;1758883;81;21633;-81
2022/05/08 11:51:59;;;;;;;16.77;8.18;;;;;;;27.76;15.29;101570.54;1759054;81;20947;-80
2022/05/08 11:54:38;;;;;;;15.03;8.65;;;;;;;27.43;15.70;101569.45;1758500;80;21255;-80